createdAt,value
2022-09-28T00:00:59.175Z,52.64
2022-09-28T00:03:25.934Z,52.76
2022-09-28T00:05:52.504Z,52.86
2022-09-28T00:08:19.124Z,53.09
2022-09-28T00:10:54.320Z,52.77
2022-09-28T00:13:20.906Z,52.76
2022-09-28T00:15:47.457Z,52.76
2022-09-28T00:18:14.035Z,52.78
2022-09-28T00:20:40.727Z,52.77
2022-09-28T00:23:07.344Z,52.76
2022-09-28T00:25:34.024Z,53.13
2022-09-28T00:28:00.706Z,52.78
2022-09-28T00:30:27.307Z,52.94
2022-09-28T00:32:53.893Z,53.00
2022-09-28T00:35:20.495Z,52.69
2022-09-28T00:37:49.041Z,52.85
2022-09-28T00:40:15.819Z,52.77
2022-09-28T00:42:43.078Z,52.94
2022-09-28T00:45:10.134Z,53.06
2022-09-28T00:47:57.073Z,53.33
2022-09-28T00:50:29.046Z,52.87
2022-09-28T00:53:04.279Z,53.11
2022-09-28T00:55:34.595Z,53.09
2022-09-28T00:58:03.489Z,53.00
2022-09-28T01:00:30.200Z,53.13
2022-09-28T01:02:58.132Z,53.03
2022-09-28T01:05:24.804Z,53.17
2022-09-28T01:07:51.517Z,53.00
2022-09-28T01:10:18.466Z,53.45
2022-09-28T01:12:45.105Z,53.01
2022-09-28T01:15:11.948Z,53.07
2022-09-28T01:17:49.386Z,53.32
2022-09-28T01:20:15.940Z,53.47
2022-09-28T01:23:01.037Z,52.94
2022-09-28T01:25:34.400Z,52.92
2022-09-28T01:28:09.453Z,53.39
2022-09-28T01:30:42.145Z,53.42
2022-09-28T01:33:14.563Z,53.32
2022-09-28T01:35:47.883Z,52.92
2022-09-28T01:38:17.625Z,53.13
2022-09-28T01:40:45.320Z,53.03
2022-09-28T01:43:23.258Z,53.06
2022-09-28T01:45:53.279Z,53.09
2022-09-28T01:48:23.336Z,53.43
2022-09-28T01:50:53.856Z,53.09
2022-09-28T01:53:29.278Z,53.24
2022-09-28T01:55:59.096Z,53.08
2022-09-28T01:58:32.600Z,53.11
2022-09-28T02:01:05.363Z,53.14
2022-09-28T02:03:37.045Z,53.11
2022-09-28T02:06:11.852Z,53.20
2022-09-28T02:08:41.321Z,53.60
2022-09-28T02:11:15.169Z,53.57
2022-09-28T02:13:44.578Z,53.12
2022-09-28T02:16:11.143Z,53.20
2022-09-28T02:18:37.779Z,53.35
2022-09-28T02:21:11.434Z,53.43
2022-09-28T02:23:40.108Z,53.46
2022-09-28T02:26:09.300Z,53.43
2022-09-28T02:28:35.863Z,53.54
2022-09-28T02:31:02.643Z,53.22
2022-09-28T02:33:40.872Z,53.68
2022-09-28T02:36:07.695Z,53.62
2022-09-28T02:38:34.384Z,53.26
2022-09-28T02:41:07.612Z,53.33
2022-09-28T02:43:52.641Z,53.72
2022-09-28T02:46:37.866Z,53.69
2022-09-28T02:49:36.774Z,53.59
2022-09-28T02:52:21.972Z,53.45
2022-09-28T02:54:48.562Z,53.37
2022-09-28T02:57:30.459Z,53.64
2022-09-28T02:59:57.057Z,53.38
2022-09-28T03:02:36.061Z,53.51
2022-09-28T03:05:14.549Z,53.38
2022-09-28T03:07:41.664Z,53.84
2022-09-28T03:10:08.265Z,53.73
2022-09-28T03:12:35.045Z,53.46
2022-09-28T03:15:07.774Z,53.70
2022-09-28T03:17:34.344Z,53.80
2022-09-28T03:20:01.081Z,53.84
2022-09-28T03:22:27.679Z,53.63
2022-09-28T03:24:54.380Z,53.94
2022-09-28T03:27:20.999Z,53.64
2022-09-28T03:29:47.593Z,53.64
2022-09-28T03:32:14.167Z,53.59
2022-09-28T03:34:40.859Z,54.01
2022-09-28T03:37:07.491Z,53.68
2022-09-28T03:39:34.088Z,53.75
2022-09-28T03:42:01.039Z,53.65
2022-09-28T03:44:27.648Z,53.84
2022-09-28T03:46:54.471Z,53.96
2022-09-28T03:49:21.227Z,53.95
2022-09-28T03:51:47.911Z,53.73
2022-09-28T03:54:14.536Z,54.12
2022-09-28T03:56:41.391Z,54.03
2022-09-28T03:59:08.114Z,54.02
2022-09-28T04:01:34.871Z,54.01
2022-09-28T04:04:01.656Z,53.93
2022-09-28T04:06:28.299Z,54.24
2022-09-28T04:08:54.853Z,54.38
2022-09-28T04:11:21.560Z,54.10
2022-09-28T04:13:49.330Z,54.30
2022-09-28T04:16:16.445Z,54.12
2022-09-28T04:18:43.082Z,53.87
2022-09-28T04:21:13.186Z,53.98
2022-09-28T04:23:40.052Z,54.12
2022-09-28T04:26:07.817Z,54.22
2022-09-28T04:28:53.168Z,54.53
2022-09-28T04:31:21.779Z,54.82
2022-09-28T04:33:48.479Z,55.15
2022-09-28T04:36:15.144Z,55.52
2022-09-28T04:38:52.732Z,55.64
2022-09-28T04:41:20.360Z,55.71
2022-09-28T04:43:47.473Z,55.85
2022-09-28T04:46:14.859Z,56.01
2022-09-28T04:48:41.579Z,56.20
2022-09-28T04:51:08.367Z,56.55
2022-09-28T04:53:39.835Z,56.87
2022-09-28T04:56:07.986Z,56.23
2022-09-28T04:58:34.998Z,56.77
2022-09-28T05:01:04.124Z,56.05
2022-09-28T05:03:35.024Z,56.47
2022-09-28T05:06:02.047Z,56.21
2022-09-28T05:08:28.959Z,56.47
2022-09-28T05:11:00.042Z,55.88
2022-09-28T05:13:38.342Z,55.82
2022-09-28T05:16:05.675Z,55.92
2022-09-28T05:18:32.789Z,55.86
2022-09-28T05:20:59.389Z,55.51
2022-09-28T05:23:26.189Z,55.77
2022-09-28T05:25:52.863Z,55.36
2022-09-28T05:28:27.299Z,55.55
2022-09-28T05:30:58.438Z,55.38
2022-09-28T05:33:25.067Z,55.40
2022-09-28T05:35:55.109Z,55.39
2022-09-28T05:38:23.630Z,55.42
2022-09-28T05:40:50.287Z,55.15
2022-09-28T05:43:16.957Z,54.96
2022-09-28T05:45:43.644Z,54.70
2022-09-28T05:48:13.376Z,54.50
2022-09-28T05:50:40.163Z,54.06
2022-09-28T05:53:08.466Z,54.16
2022-09-28T05:55:35.906Z,53.92
2022-09-28T05:58:04.438Z,53.57
2022-09-28T06:00:31.850Z,53.61
2022-09-28T06:03:08.934Z,53.45
2022-09-28T06:05:36.531Z,53.68
2022-09-28T06:08:04.574Z,53.52
2022-09-28T06:10:31.524Z,53.22
2022-09-28T06:12:58.499Z,53.37
2022-09-28T06:15:27.544Z,52.99
2022-09-28T06:18:20.599Z,52.95
2022-09-28T06:20:47.199Z,53.10
2022-09-28T06:23:14.121Z,53.02
2022-09-28T06:25:40.855Z,52.33
2022-09-28T06:28:09.805Z,52.55
2022-09-28T06:30:38.722Z,52.33
2022-09-28T06:33:06.292Z,51.77
2022-09-28T06:35:35.062Z,51.67
2022-09-28T06:38:02.092Z,46.03
2022-09-28T06:40:35.540Z,43.46
2022-09-28T06:43:03.811Z,46.05
2022-09-28T06:45:31.039Z,46.08
2022-09-28T06:47:58.845Z,46.64
2022-09-28T06:50:26.710Z,46.99
2022-09-28T06:52:54.162Z,47.12
2022-09-28T06:55:21.485Z,47.27
2022-09-28T06:57:48.661Z,47.29
2022-09-28T07:00:15.560Z,47.79
2022-09-28T07:02:42.189Z,47.94
2022-09-28T07:05:12.717Z,47.73
2022-09-28T07:07:40.559Z,47.77
2022-09-28T07:10:07.423Z,47.71
2022-09-28T07:12:35.437Z,47.67
2022-09-28T07:15:02.477Z,48.43
2022-09-28T07:17:29.297Z,48.56
2022-09-28T07:20:00.763Z,48.41
2022-09-28T07:22:41.872Z,48.69
2022-09-28T07:25:09.899Z,48.31
2022-09-28T07:27:37.426Z,48.01
2022-09-28T07:30:05.673Z,47.79
2022-09-28T07:32:35.204Z,48.13
2022-09-28T07:35:03.028Z,47.96
2022-09-28T07:37:29.643Z,47.46
2022-09-28T07:40:16.559Z,47.49
2022-09-28T07:42:43.176Z,47.55
2022-09-28T07:45:09.989Z,47.64
2022-09-28T07:47:36.597Z,47.61
2022-09-28T07:50:03.340Z,47.30
2022-09-28T07:52:29.931Z,47.33
2022-09-28T07:54:56.493Z,47.63
2022-09-28T07:57:23.500Z,47.16
2022-09-28T07:59:50.532Z,47.21
2022-09-28T08:02:20.409Z,47.38
2022-09-28T08:04:58.909Z,47.07
2022-09-28T08:07:25.860Z,47.16
2022-09-28T08:09:52.470Z,47.39
2022-09-28T08:12:19.905Z,47.19
2022-09-28T08:14:46.878Z,47.05
2022-09-28T08:17:13.831Z,47.36
2022-09-28T08:19:58.817Z,47.39
2022-09-28T08:22:25.574Z,47.23
2022-09-28T08:24:52.175Z,47.05
2022-09-28T08:27:18.893Z,47.54
2022-09-28T08:29:45.516Z,47.50
2022-09-28T08:32:12.149Z,47.58
2022-09-28T08:34:39.812Z,47.57
2022-09-28T08:37:29.282Z,47.66
2022-09-28T08:39:56.217Z,47.58
2022-09-28T08:42:23.200Z,47.56
2022-09-28T08:44:58.037Z,47.49
2022-09-28T08:47:46.503Z,47.38
2022-09-28T08:50:17.888Z,47.92
2022-09-28T08:52:48.410Z,48.09
2022-09-28T08:55:17.598Z,47.91
2022-09-28T08:57:50.969Z,48.02
2022-09-28T09:00:21.201Z,48.02
2022-09-28T09:02:48.271Z,48.25
2022-09-28T09:05:20.175Z,48.46
2022-09-28T09:07:46.768Z,48.21
2022-09-28T09:10:21.064Z,48.33
2022-09-28T09:15:50.916Z,48.28
2022-09-28T09:18:22.569Z,48.50
2022-09-28T09:21:00.790Z,48.77
2022-09-28T09:23:46.547Z,48.48
2022-09-28T09:26:15.415Z,48.40
2022-09-28T09:29:02.169Z,48.47
2022-09-28T09:31:44.978Z,48.93
2022-09-28T09:34:20.955Z,48.50
2022-09-28T09:37:24.679Z,48.55
2022-09-28T09:40:03.310Z,48.29
2022-09-28T09:42:50.449Z,48.37
2022-09-28T09:45:26.171Z,48.20
2022-09-28T09:48:00.759Z,48.38
2022-09-28T09:50:33.680Z,48.10
2022-09-28T09:53:09.764Z,48.47
2022-09-28T09:55:40.839Z,48.53
2022-09-28T09:58:13.442Z,48.02
2022-09-28T10:00:44.589Z,48.03
2022-09-28T10:03:19.581Z,47.90
2022-09-28T10:05:49.119Z,47.76
2022-09-28T10:08:17.955Z,47.67
2022-09-28T10:10:49.273Z,47.70
2022-09-28T10:13:15.838Z,47.64
2022-09-28T10:15:43.547Z,47.61
2022-09-28T10:18:12.152Z,47.80
2022-09-28T10:20:39.976Z,47.68
2022-09-28T10:23:14.593Z,47.21
2022-09-28T10:25:43.418Z,47.56
2022-09-28T10:28:12.263Z,47.62
2022-09-28T10:30:44.453Z,47.30
2022-09-28T10:33:32.613Z,47.35
2022-09-28T10:36:05.200Z,47.52
2022-09-28T10:38:32.957Z,47.36
2022-09-28T10:41:00.947Z,47.48
2022-09-28T10:43:49.608Z,47.32
2022-09-28T10:46:23.931Z,47.54
2022-09-28T10:48:52.914Z,47.23
2022-09-28T10:51:19.593Z,47.48
2022-09-28T10:54:02.199Z,47.26
2022-09-28T10:56:30.416Z,46.91
2022-09-28T10:58:58.182Z,46.52
2022-09-28T11:01:29.201Z,46.72
2022-09-28T11:03:57.136Z,46.46
2022-09-28T11:06:36.263Z,46.36
2022-09-28T11:09:04.714Z,46.82
2022-09-28T11:11:39.621Z,46.60
2022-09-28T11:14:18.206Z,46.44
2022-09-28T11:16:44.812Z,46.43
2022-09-28T11:19:38.339Z,46.75
2022-09-28T11:22:20.440Z,46.46
2022-09-28T11:24:53.431Z,46.56
2022-09-28T11:27:22.180Z,46.75
2022-09-28T11:29:57.207Z,46.81
2022-09-28T11:32:29.319Z,46.87
2022-09-28T11:34:59.932Z,46.65
2022-09-28T11:37:32.998Z,47.24
2022-09-28T11:40:15.820Z,46.61
2022-09-28T11:42:48.824Z,46.92
2022-09-28T11:45:15.353Z,47.24
2022-09-28T11:48:00.796Z,47.18
2022-09-28T11:50:33.529Z,46.90
2022-09-28T11:53:12.254Z,47.04
2022-09-28T11:55:42.612Z,47.08
2022-09-28T11:58:15.267Z,47.16
2022-09-28T12:00:48.310Z,47.22
2022-09-28T12:03:18.618Z,47.43
2022-09-28T12:05:56.184Z,47.46
2022-09-28T12:08:25.750Z,47.46
2022-09-28T12:11:02.496Z,47.07
2022-09-28T12:13:48.827Z,47.14
2022-09-28T12:16:53.176Z,47.53
2022-09-28T12:19:14.018Z,47.79
2022-09-28T12:21:43.598Z,47.58
2022-09-28T12:24:10.148Z,47.75
2022-09-28T12:26:44.163Z,47.72
2022-09-28T12:29:13.881Z,47.54
2022-09-28T12:31:52.814Z,47.72
2022-09-28T12:34:19.575Z,47.36
2022-09-28T12:36:58.673Z,47.66
2022-09-28T12:39:46.917Z,47.54
2022-09-28T12:42:27.873Z,47.45
2022-09-28T12:44:59.385Z,47.71
2022-09-28T12:47:26.438Z,47.77
2022-09-28T12:50:37.692Z,47.80
2022-09-28T12:53:14.171Z,47.70
2022-09-28T12:55:46.515Z,47.74
2022-09-28T12:58:21.236Z,47.82
2022-09-28T13:01:00.808Z,47.86
2022-09-28T13:03:44.517Z,47.53
2022-09-28T13:06:11.243Z,47.97
2022-09-28T13:08:55.874Z,47.96
2022-09-28T13:11:32.052Z,47.62
2022-09-28T13:14:25.080Z,47.49
2022-09-28T13:16:58.379Z,47.36
2022-09-28T13:19:29.837Z,47.03
2022-09-28T13:22:05.550Z,47.04
2022-09-28T13:24:37.130Z,46.92
2022-09-28T13:27:06.647Z,46.76
2022-09-28T13:29:35.141Z,46.95
2022-09-28T13:32:03.741Z,46.65
2022-09-28T13:34:33.533Z,46.55
2022-09-28T13:37:29.875Z,46.58
2022-09-28T13:40:00.234Z,46.92
2022-09-28T13:42:32.728Z,46.34
2022-09-28T13:45:17.958Z,46.48
2022-09-28T13:47:47.695Z,46.91
2022-09-28T13:50:28.998Z,46.40
2022-09-28T13:53:24.045Z,46.89
2022-09-28T13:56:20.387Z,46.57
2022-09-28T13:59:09.355Z,46.42
2022-09-28T14:01:40.731Z,46.48
2022-09-28T14:04:11.259Z,46.57
2022-09-28T14:06:45.697Z,46.53
2022-09-28T14:09:16.361Z,46.59
2022-09-28T14:11:44.944Z,46.12
2022-09-28T14:14:14.242Z,46.49
2022-09-28T14:16:42.464Z,46.33
2022-09-28T14:19:14.359Z,46.05
2022-09-28T14:21:44.721Z,46.25
2022-09-28T14:24:19.392Z,46.10
2022-09-28T14:26:47.956Z,46.19
2022-09-28T14:29:18.075Z,46.28
2022-09-28T14:31:45.809Z,46.26
2022-09-28T14:34:16.218Z,46.44
2022-09-28T14:36:51.678Z,46.06
2022-09-28T14:39:25.204Z,46.15
2022-09-28T14:41:52.913Z,46.30
2022-09-28T14:44:20.139Z,46.37
2022-09-28T14:46:48.034Z,46.00
2022-09-28T14:49:18.226Z,46.25
2022-09-28T14:51:48.491Z,46.38
2022-09-28T14:54:19.961Z,46.18
2022-09-28T14:56:50.842Z,46.23
2022-09-28T14:59:19.671Z,46.44
2022-09-28T15:01:51.189Z,46.27
2022-09-28T15:04:19.599Z,46.13
2022-09-28T15:06:48.405Z,46.64
2022-09-28T15:09:21.445Z,46.70
2022-09-28T15:11:49.187Z,46.77
2022-09-28T15:14:18.852Z,46.33
2022-09-28T15:16:51.345Z,46.95
2022-09-28T15:19:20.974Z,46.99
2022-09-28T15:21:50.142Z,46.65
2022-09-28T15:24:20.340Z,46.88
2022-09-28T15:26:48.742Z,46.86
2022-09-28T15:29:18.371Z,47.09
2022-09-28T15:31:45.523Z,47.40
2022-09-28T15:34:30.073Z,47.33
2022-09-28T15:36:57.337Z,47.05
2022-09-28T15:39:29.288Z,46.84
2022-09-28T15:41:57.062Z,47.00
2022-09-28T15:44:30.293Z,47.13
2022-09-28T15:47:07.011Z,47.15
2022-09-28T15:49:39.115Z,47.09
2022-09-28T15:52:06.703Z,47.39
2022-09-28T15:54:39.606Z,47.47
2022-09-28T15:57:06.941Z,47.72
2022-09-28T15:59:37.570Z,47.67
2022-09-28T16:02:08.446Z,47.52
2022-09-28T16:04:38.602Z,47.67
2022-09-28T16:07:07.274Z,47.33
2022-09-28T16:09:40.902Z,47.67
2022-09-28T16:12:10.041Z,47.67
2022-09-28T16:14:37.348Z,47.75
2022-09-28T16:17:05.934Z,47.83
2022-09-28T16:19:37.442Z,47.68
2022-09-28T16:22:06.924Z,47.57
2022-09-28T16:24:35.373Z,47.31
2022-09-28T16:27:05.449Z,47.75
2022-09-28T16:29:39.534Z,47.47
2022-09-28T16:32:09.706Z,47.25
2022-09-28T16:34:36.842Z,47.56
2022-09-28T16:37:05.065Z,47.49
2022-09-28T16:39:32.584Z,47.97
2022-09-28T16:42:13.994Z,47.92
2022-09-28T16:44:40.653Z,48.22
2022-09-28T16:47:10.797Z,48.08
2022-09-28T16:49:40.652Z,47.76
2022-09-28T16:52:12.863Z,47.83
2022-09-28T16:54:58.686Z,47.87
2022-09-28T16:57:25.891Z,47.82
2022-09-28T17:02:46.954Z,47.63
2022-09-28T17:05:15.952Z,47.76
2022-09-28T17:07:48.923Z,47.99
2022-09-28T17:10:24.471Z,47.80
2022-09-28T17:12:51.967Z,48.07
2022-09-28T17:15:20.037Z,47.97
2022-09-28T17:17:47.642Z,47.66
2022-09-28T17:20:22.278Z,47.85
2022-09-28T17:22:49.916Z,48.05
2022-09-28T17:25:17.317Z,48.21
2022-09-28T17:27:45.890Z,47.89
2022-09-28T17:30:13.490Z,48.08
2022-09-28T17:32:45.026Z,47.94
2022-09-28T17:35:24.281Z,48.06
2022-09-28T17:37:51.805Z,47.89
2022-09-28T17:40:22.848Z,48.09
2022-09-28T17:42:49.633Z,47.98
2022-09-28T17:45:16.461Z,48.40
2022-09-28T17:47:43.978Z,48.44
2022-09-28T17:50:24.153Z,48.17
2022-09-28T17:52:55.002Z,48.48
2022-09-28T17:55:23.355Z,48.55
2022-09-28T17:57:50.354Z,48.16
2022-09-28T18:00:17.886Z,48.35
2022-09-28T18:02:45.214Z,48.55
2022-09-28T18:05:14.782Z,48.65
2022-09-28T18:07:47.424Z,48.61
2022-09-28T18:10:15.708Z,48.68
2022-09-28T18:12:43.413Z,48.27
2022-09-28T18:15:10.701Z,48.33
2022-09-28T18:17:37.627Z,48.41
2022-09-28T18:20:05.374Z,48.61
2022-09-28T18:22:32.194Z,48.71
2022-09-28T18:24:59.207Z,48.56
2022-09-28T18:27:28.536Z,48.39
2022-09-28T18:29:55.084Z,48.76
2022-09-28T18:32:21.822Z,48.77
2022-09-28T18:34:59.525Z,48.89
2022-09-28T18:37:26.222Z,48.87
2022-09-28T18:39:52.948Z,48.74
2022-09-28T18:42:20.783Z,49.00
2022-09-28T18:44:47.583Z,48.83
2022-09-28T18:47:15.309Z,48.90
2022-09-28T18:49:45.990Z,48.90
2022-09-28T18:52:13.409Z,48.66
2022-09-28T18:54:40.454Z,48.58
2022-09-28T18:57:07.064Z,48.34
2022-09-28T18:59:33.774Z,48.24
2022-09-28T19:02:01.783Z,48.62
2022-09-28T19:04:28.557Z,48.19
2022-09-28T19:06:55.571Z,48.10
2022-09-28T19:09:22.908Z,48.14
2022-09-28T19:11:49.708Z,48.01
2022-09-28T19:14:16.370Z,47.80
2022-09-28T19:16:44.060Z,47.68
2022-09-28T19:19:12.767Z,47.97
2022-09-28T19:21:40.387Z,47.92
2022-09-28T19:24:07.131Z,47.46
2022-09-28T19:26:33.868Z,47.35
2022-09-28T19:29:00.507Z,47.48
2022-09-28T19:31:27.420Z,47.17
2022-09-28T19:33:54.040Z,47.52
2022-09-28T19:36:23.421Z,47.35
2022-09-28T19:38:50.585Z,47.29
2022-09-28T19:41:39.589Z,46.87
2022-09-28T19:44:10.171Z,46.75
2022-09-28T19:46:38.520Z,46.90
2022-09-28T19:49:06.485Z,46.78
2022-09-28T19:51:33.550Z,46.93
2022-09-28T19:54:04.623Z,46.80
2022-09-28T19:56:32.094Z,46.83
2022-09-28T19:59:02.389Z,47.07
2022-09-28T20:01:29.918Z,47.17
2022-09-28T20:03:57.146Z,46.80
2022-09-28T20:06:24.540Z,46.89
2022-09-28T20:08:51.537Z,46.88
2022-09-28T20:11:18.641Z,46.64
2022-09-28T20:13:45.346Z,46.77
2022-09-28T20:16:14.520Z,46.58
2022-09-28T20:18:44.119Z,46.77
2022-09-28T20:21:14.119Z,46.71
2022-09-28T20:23:44.784Z,46.67
2022-09-28T20:26:11.795Z,46.12
2022-09-28T20:28:38.814Z,46.02
2022-09-28T20:31:06.654Z,45.97
2022-09-28T20:33:48.655Z,46.20
2022-09-28T20:36:16.881Z,45.86
2022-09-28T20:38:44.025Z,46.13
2022-09-28T20:41:11.749Z,46.18
2022-09-28T20:43:42.191Z,45.99
2022-09-28T20:46:10.530Z,45.73
2022-09-28T20:48:37.424Z,46.00
2022-09-28T20:51:05.329Z,45.90
2022-09-28T20:53:42.994Z,45.76
2022-09-28T20:56:14.097Z,46.08
2022-09-28T20:58:41.150Z,45.84
2022-09-28T21:01:12.611Z,45.99
2022-09-28T21:03:42.935Z,45.93
2022-09-28T21:06:12.290Z,46.32
2022-09-28T21:08:39.074Z,45.82
2022-09-28T21:11:07.354Z,46.17
2022-09-28T21:13:45.135Z,46.09
2022-09-28T21:16:12.634Z,46.05
2022-09-28T21:18:39.527Z,46.29
2022-09-28T21:21:07.390Z,46.05
2022-09-28T21:23:49.047Z,46.22
2022-09-28T21:26:19.080Z,46.27
2022-09-28T21:28:46.224Z,45.92
2022-09-28T21:31:13.076Z,46.08
2022-09-28T21:33:43.920Z,46.13
2022-09-28T21:36:10.556Z,46.22
2022-09-28T21:38:37.223Z,46.35
2022-09-28T21:41:03.946Z,45.88
2022-09-28T21:43:42.471Z,46.25
2022-09-28T21:46:09.847Z,45.81
2022-09-28T21:48:36.513Z,46.07
2022-09-28T21:51:04.564Z,46.00
2022-09-28T21:53:42.922Z,45.82
2022-09-28T21:56:10.699Z,46.14
2022-09-28T21:58:37.627Z,46.16
2022-09-28T22:01:04.231Z,46.08
2022-09-28T22:03:39.325Z,46.32
2022-09-28T22:06:06.682Z,46.40
2022-09-28T22:08:33.671Z,46.54
2022-09-28T22:11:01.813Z,46.71
2022-09-28T22:13:28.996Z,46.59
2022-09-28T22:15:56.022Z,46.50
2022-09-28T22:18:22.646Z,46.44
2022-09-28T22:20:49.341Z,46.62
2022-09-28T22:23:15.998Z,46.32
2022-09-28T22:25:42.589Z,46.33
2022-09-28T22:28:09.167Z,46.54
2022-09-28T22:30:35.786Z,46.49
2022-09-28T22:33:02.915Z,47.34
2022-09-28T22:35:29.583Z,47.44
2022-09-28T22:37:56.153Z,47.31
2022-09-28T22:40:24.254Z,46.99
2022-09-28T22:42:50.852Z,47.41
2022-09-28T22:45:17.486Z,46.40
2022-09-28T22:47:44.868Z,41.55
2022-09-28T22:50:11.557Z,41.83
2022-09-28T22:52:38.155Z,42.32
2022-09-28T22:55:05.113Z,43.04
2022-09-28T22:57:31.772Z,43.90
2022-09-28T22:59:58.350Z,43.64
2022-09-28T23:02:24.949Z,43.83
2022-09-28T23:04:51.585Z,44.46
2022-09-28T23:07:18.897Z,44.32
2022-09-28T23:09:46.094Z,44.69
2022-09-28T23:12:14.215Z,44.48
2022-09-28T23:14:41.152Z,44.73
2022-09-28T23:17:07.942Z,44.74
2022-09-28T23:19:34.584Z,44.85
2022-09-28T23:22:01.448Z,44.99
2022-09-28T23:24:28.145Z,44.90
2022-09-28T23:26:54.743Z,44.66
2022-09-28T23:29:21.664Z,45.04
2022-09-28T23:31:48.469Z,44.84
2022-09-28T23:34:15.128Z,44.78
2022-09-28T23:36:43.980Z,45.02
2022-09-28T23:39:12.094Z,45.21
2022-09-28T23:41:40.049Z,45.13
2022-09-28T23:44:06.860Z,44.84
2022-09-28T23:46:35.389Z,45.15
2022-09-28T23:49:02.206Z,45.27
2022-09-28T23:51:28.855Z,45.23
2022-09-28T23:53:55.502Z,45.24
2022-09-28T23:56:22.109Z,46.16
2022-09-28T23:58:48.725Z,45.91
